createdAt,value
2022-11-09T00:00:06.492Z,7.67
2022-11-09T00:03:07.945Z,7.69
2022-11-09T00:06:09.359Z,7.81
2022-11-09T00:09:10.696Z,7.78
2022-11-09T00:12:12.058Z,7.79
2022-11-09T00:15:13.447Z,7.83
2022-11-09T00:18:14.886Z,7.91
2022-11-09T00:21:17.417Z,7.95
2022-11-09T00:24:18.924Z,7.94
2022-11-09T00:27:20.285Z,7.96
2022-11-09T00:30:21.598Z,7.95
2022-11-09T00:33:22.917Z,8.02
2022-11-09T00:36:24.648Z,7.99
2022-11-09T00:39:25.986Z,8.02
2022-11-09T00:42:27.342Z,8.06
2022-11-09T00:45:28.689Z,8.09
2022-11-09T00:48:30.078Z,8.12
2022-11-09T00:51:31.430Z,8.10
2022-11-09T00:54:32.783Z,8.12
2022-11-09T00:57:34.119Z,8.15
2022-11-09T01:00:35.486Z,8.20
2022-11-09T01:03:36.892Z,8.19
2022-11-09T01:06:38.285Z,8.22
2022-11-09T01:09:39.607Z,8.19
2022-11-09T01:12:40.986Z,8.20
2022-11-09T01:15:49.715Z,8.23
2022-11-09T01:18:57.293Z,8.27
2022-11-09T01:21:58.610Z,8.36
2022-11-09T01:24:59.943Z,8.49
2022-11-09T01:28:01.287Z,8.51
2022-11-09T01:31:12.512Z,8.53
2022-11-09T01:34:13.817Z,8.49
2022-11-09T01:37:15.134Z,8.47
2022-11-09T01:40:16.439Z,8.48
2022-11-09T01:43:18.870Z,8.55
2022-11-09T01:46:24.599Z,8.75
2022-11-09T01:49:37.314Z,8.97
2022-11-09T01:52:39.351Z,9.13
2022-11-09T01:55:40.661Z,9.06
2022-11-09T01:58:44.186Z,9.09
2022-11-09T02:01:45.727Z,9.12
2022-11-09T02:04:49.353Z,9.12
2022-11-09T02:07:50.699Z,9.20
2022-11-09T02:11:04.207Z,9.29
2022-11-09T02:14:05.575Z,9.27
2022-11-09T02:17:06.967Z,9.20
2022-11-09T02:20:11.890Z,9.29
2022-11-09T02:23:13.304Z,9.34
2022-11-09T02:26:24.636Z,9.48
2022-11-09T02:29:31.771Z,9.48
2022-11-09T02:32:33.093Z,9.50
2022-11-09T02:35:34.407Z,9.51
2022-11-09T02:38:35.875Z,9.58
2022-11-09T02:41:39.807Z,9.59
2022-11-09T02:44:42.025Z,9.72
2022-11-09T02:47:43.404Z,9.74
2022-11-09T02:50:44.723Z,9.76
2022-11-09T02:53:46.083Z,9.77
2022-11-09T02:56:47.407Z,9.76
2022-11-09T02:59:48.746Z,9.73
2022-11-09T03:02:50.070Z,9.72
2022-11-09T03:05:51.410Z,9.64
2022-11-09T03:08:52.728Z,9.71
2022-11-09T03:11:54.075Z,9.73
2022-11-09T03:14:59.079Z,9.70
2022-11-09T03:18:00.426Z,9.72
2022-11-09T03:21:02.685Z,9.73
2022-11-09T03:24:04.078Z,9.70
2022-11-09T03:27:05.498Z,9.69
2022-11-09T03:30:07.209Z,9.63
2022-11-09T03:33:10.255Z,9.73
2022-11-09T03:36:11.745Z,9.81
2022-11-09T03:39:13.089Z,9.78
2022-11-09T03:42:14.462Z,9.70
2022-11-09T03:45:16.098Z,9.69
2022-11-09T03:48:17.433Z,9.61
2022-11-09T03:51:18.771Z,9.71
2022-11-09T03:54:20.255Z,9.71
2022-11-09T03:57:21.694Z,9.78
2022-11-09T04:00:23.165Z,9.79
2022-11-09T04:03:24.506Z,9.77
2022-11-09T04:06:25.855Z,9.87
2022-11-09T04:09:27.202Z,9.78
2022-11-09T04:12:28.584Z,9.77
2022-11-09T04:15:29.910Z,9.82
2022-11-09T04:18:31.394Z,9.75
2022-11-09T04:21:34.105Z,9.91
2022-11-09T04:24:35.430Z,9.94
2022-11-09T04:27:36.791Z,10.05
2022-11-09T04:30:38.151Z,10.06
2022-11-09T04:33:39.475Z,10.14
2022-11-09T04:36:40.854Z,10.30
2022-11-09T04:39:42.171Z,10.36
2022-11-09T04:42:43.546Z,10.32
2022-11-09T04:45:45.753Z,10.33
2022-11-09T04:48:47.214Z,10.33
2022-11-09T04:51:48.571Z,10.32
2022-11-09T04:54:49.887Z,10.48
2022-11-09T04:57:51.255Z,10.40
2022-11-09T05:00:53.062Z,10.59
2022-11-09T05:03:54.497Z,10.65
2022-11-09T05:06:55.925Z,10.75
2022-11-09T05:09:57.341Z,10.88
2022-11-09T05:12:59.317Z,11.02
2022-11-09T05:16:00.959Z,11.16
2022-11-09T05:19:02.351Z,11.17
2022-11-09T05:22:23.991Z,11.08
2022-11-09T05:25:25.318Z,11.29
2022-11-09T05:28:26.631Z,11.21
2022-11-09T05:31:28.000Z,11.49
2022-11-09T05:34:29.354Z,11.41
2022-11-09T05:37:30.777Z,11.41
2022-11-09T05:40:33.421Z,11.46
2022-11-09T05:43:34.729Z,11.52
2022-11-09T05:46:36.087Z,11.49
2022-11-09T05:49:37.482Z,11.37
2022-11-09T05:52:38.954Z,11.38
2022-11-09T05:55:40.304Z,11.38
2022-11-09T05:58:42.033Z,11.48
2022-11-09T06:01:43.490Z,11.61
2022-11-09T06:04:44.841Z,11.37
2022-11-09T06:07:46.225Z,11.38
2022-11-09T06:10:47.575Z,11.46
2022-11-09T06:13:49.252Z,11.20
2022-11-09T06:16:50.651Z,11.13
2022-11-09T06:19:54.176Z,11.03
2022-11-09T06:23:03.863Z,11.01
2022-11-09T06:26:09.818Z,10.89
2022-11-09T06:29:11.267Z,10.80
2022-11-09T06:32:12.599Z,10.75
2022-11-09T06:35:14.279Z,10.65
2022-11-09T06:38:15.602Z,10.58
2022-11-09T06:41:17.019Z,10.49
2022-11-09T06:44:18.362Z,10.46
2022-11-09T06:47:19.746Z,10.41
2022-11-09T06:50:21.272Z,10.38
2022-11-09T06:53:23.881Z,10.32
2022-11-09T06:56:25.605Z,10.30
2022-11-09T06:59:26.963Z,10.28
2022-11-09T07:02:28.324Z,10.26
2022-11-09T07:05:29.650Z,10.21
2022-11-09T07:08:30.986Z,10.18
2022-11-09T07:11:32.474Z,10.19
2022-11-09T07:14:33.810Z,10.16
2022-11-09T07:17:37.029Z,10.12
2022-11-09T07:20:38.408Z,10.11
2022-11-09T07:23:39.863Z,10.13
2022-11-09T07:26:41.199Z,10.14
2022-11-09T07:29:42.592Z,10.15
2022-11-09T07:36:05.352Z,10.13
2022-11-09T07:39:06.728Z,10.12
2022-11-09T07:42:08.086Z,10.12
2022-11-09T07:45:09.688Z,10.12
2022-11-09T07:48:11.535Z,10.11
2022-11-09T07:51:24.745Z,10.10
2022-11-09T07:54:26.774Z,10.08
2022-11-09T07:57:28.118Z,10.05
2022-11-09T08:00:30.123Z,10.08
2022-11-09T08:03:31.503Z,10.10
2022-11-09T08:06:33.278Z,10.13
2022-11-09T08:09:34.625Z,10.14
2022-11-09T08:12:37.383Z,10.14
2022-11-09T08:15:39.107Z,10.14
2022-11-09T08:18:40.436Z,10.14
2022-11-09T08:21:41.851Z,10.15
2022-11-09T08:24:43.171Z,10.17
2022-11-09T08:27:44.561Z,10.15
2022-11-09T08:30:45.903Z,10.21
2022-11-09T08:33:47.240Z,10.24
2022-11-09T08:36:48.625Z,10.26
2022-11-09T08:39:49.959Z,10.35
2022-11-09T08:42:51.453Z,10.42
2022-11-09T08:45:52.881Z,10.56
2022-11-09T08:48:54.589Z,10.73
2022-11-09T08:51:56.053Z,10.81
2022-11-09T08:54:57.376Z,10.86
2022-11-09T08:57:59.066Z,10.95
2022-11-09T09:01:00.434Z,10.99
2022-11-09T09:04:01.769Z,11.06
2022-11-09T09:07:03.204Z,11.21
2022-11-09T09:10:04.843Z,11.27
2022-11-09T09:13:06.290Z,11.38
2022-11-09T09:16:11.606Z,11.44
2022-11-09T09:19:12.940Z,11.41
2022-11-09T09:22:14.271Z,11.50
2022-11-09T09:25:15.842Z,11.51
2022-11-09T09:28:17.498Z,11.53
2022-11-09T09:31:19.800Z,11.66
2022-11-09T09:34:21.130Z,11.76
2022-11-09T09:37:22.458Z,11.75
2022-11-09T09:40:24.879Z,11.91
2022-11-09T09:43:42.562Z,11.97
2022-11-09T09:46:46.080Z,12.05
2022-11-09T09:49:48.694Z,12.19
2022-11-09T09:53:17.575Z,12.31
2022-11-09T09:56:39.869Z,12.35
2022-11-09T09:59:42.020Z,12.44
2022-11-09T10:02:43.394Z,12.50
2022-11-09T10:06:05.886Z,12.59
2022-11-09T10:09:27.444Z,12.72
2022-11-09T10:12:33.270Z,12.84
2022-11-09T10:15:40.656Z,12.82
2022-11-09T10:18:45.552Z,12.87
2022-11-09T10:21:50.013Z,12.93
2022-11-09T10:28:23.203Z,13.06
2022-11-09T10:31:24.666Z,13.12
2022-11-09T10:34:29.874Z,13.17
2022-11-09T10:37:41.223Z,13.21
2022-11-09T10:40:45.604Z,13.22
2022-11-09T10:43:46.919Z,13.15
2022-11-09T10:47:07.190Z,13.18
2022-11-09T10:50:11.759Z,13.20
2022-11-09T10:53:14.834Z,13.28
2022-11-09T10:56:20.748Z,13.34
2022-11-09T10:59:31.877Z,13.31
2022-11-09T11:02:33.434Z,13.34
2022-11-09T11:05:34.875Z,13.36
2022-11-09T11:08:37.359Z,13.37
2022-11-09T11:11:39.272Z,13.39
2022-11-09T11:14:44.497Z,13.41
2022-11-09T11:17:45.877Z,13.48
2022-11-09T11:20:47.450Z,13.52
2022-11-09T11:24:10.824Z,13.47
2022-11-09T11:27:21.337Z,13.54
2022-11-09T11:30:28.581Z,13.69
2022-11-09T11:33:31.945Z,13.76
2022-11-09T11:36:33.283Z,13.76
2022-11-09T11:39:34.559Z,13.77
2022-11-09T11:42:55.377Z,13.77
2022-11-09T11:46:10.776Z,13.67
2022-11-09T11:49:31.717Z,13.69
2022-11-09T11:52:55.909Z,13.66
2022-11-09T11:56:04.475Z,13.70
2022-11-09T11:59:15.070Z,13.67
2022-11-09T12:02:22.503Z,13.61
2022-11-09T12:05:24.251Z,13.63
2022-11-09T12:08:25.518Z,13.61
2022-11-09T12:11:45.242Z,13.60
2022-11-09T12:14:49.311Z,13.70
2022-11-09T12:17:51.252Z,13.57
2022-11-09T12:20:55.837Z,13.62
2022-11-09T12:24:12.495Z,13.56
2022-11-09T12:27:35.139Z,13.50
2022-11-09T12:30:54.895Z,13.41
2022-11-09T12:34:06.752Z,13.36
2022-11-09T12:37:13.902Z,13.30
2022-11-09T12:40:25.331Z,13.30
2022-11-09T12:43:28.305Z,13.19
2022-11-09T12:46:35.405Z,13.06
2022-11-09T12:49:38.060Z,13.01
2022-11-09T12:52:39.642Z,12.97
2022-11-09T12:55:46.610Z,12.96
2022-11-09T12:58:47.961Z,12.90
2022-11-09T13:01:55.927Z,12.90
2022-11-09T13:04:58.157Z,12.84
2022-11-09T13:08:00.142Z,12.82
2022-11-09T13:11:16.695Z,12.76
2022-11-09T13:14:30.499Z,12.71
2022-11-09T13:17:31.789Z,12.70
2022-11-09T13:24:03.005Z,12.67
2022-11-09T13:27:25.775Z,12.71
2022-11-09T13:30:58.145Z,12.68
2022-11-09T13:34:19.400Z,12.65
2022-11-09T13:37:36.451Z,12.65
2022-11-09T13:40:53.133Z,12.62
2022-11-09T13:44:17.324Z,12.67
2022-11-09T13:47:22.319Z,12.55
2022-11-09T13:50:24.255Z,12.50
2022-11-09T13:53:47.986Z,12.47
2022-11-09T13:56:49.358Z,12.42
2022-11-09T13:59:50.813Z,12.36
2022-11-09T14:02:52.854Z,12.36
2022-11-09T14:05:55.627Z,12.32
2022-11-09T14:08:57.128Z,12.28
2022-11-09T14:12:04.872Z,12.27
2022-11-09T14:15:12.304Z,12.21
2022-11-09T14:18:21.421Z,12.16
2022-11-09T14:21:22.707Z,12.10
2022-11-09T14:24:25.137Z,12.07
2022-11-09T14:27:26.481Z,12.00
2022-11-09T14:30:28.713Z,11.95
2022-11-09T14:33:30.785Z,11.87
2022-11-09T14:36:33.734Z,11.81
2022-11-09T14:39:35.306Z,11.67
2022-11-09T14:42:36.622Z,11.57
2022-11-09T14:45:38.363Z,11.51
2022-11-09T14:48:43.299Z,11.53
2022-11-09T14:51:48.378Z,11.50
2022-11-09T14:54:49.745Z,11.45
2022-11-09T14:57:51.558Z,11.44
2022-11-09T15:01:05.577Z,11.39
2022-11-09T15:04:11.582Z,11.37
2022-11-09T15:07:14.039Z,11.36
2022-11-09T15:10:18.785Z,11.35
2022-11-09T15:13:20.487Z,11.29
2022-11-09T15:16:22.730Z,11.28
2022-11-09T15:19:31.102Z,11.19
2022-11-09T15:22:44.642Z,11.15
2022-11-09T15:25:45.968Z,11.11
2022-11-09T15:28:47.612Z,11.08
2022-11-09T15:31:58.248Z,11.08
2022-11-09T15:34:59.617Z,11.02
2022-11-09T15:38:01.063Z,10.90
2022-11-09T15:41:02.584Z,10.79
2022-11-09T15:44:04.535Z,10.71
2022-11-09T15:47:15.272Z,10.67
2022-11-09T15:50:18.379Z,10.64
2022-11-09T15:53:19.707Z,10.65
2022-11-09T15:56:22.141Z,10.64
2022-11-09T15:59:24.950Z,10.60
2022-11-09T16:02:26.305Z,10.55
2022-11-09T16:05:28.189Z,10.57
2022-11-09T16:08:29.629Z,10.57
2022-11-09T16:11:30.950Z,10.51
2022-11-09T16:14:32.434Z,10.43
2022-11-09T16:17:34.194Z,10.40
2022-11-09T16:20:35.547Z,10.41
2022-11-09T16:23:36.971Z,10.41
2022-11-09T16:26:38.375Z,10.38
2022-11-09T16:29:39.753Z,10.43
2022-11-09T16:32:41.168Z,10.42
2022-11-09T16:35:42.530Z,10.40
2022-11-09T16:38:44.825Z,10.38
2022-11-09T16:41:47.035Z,10.38
2022-11-09T16:44:48.364Z,10.41
2022-11-09T16:47:51.083Z,10.38
2022-11-09T16:50:53.705Z,10.36
2022-11-09T16:53:55.110Z,10.34
2022-11-09T16:56:56.460Z,10.32
2022-11-09T16:59:57.893Z,10.29
2022-11-09T17:03:01.431Z,10.26
2022-11-09T17:06:02.999Z,10.25
2022-11-09T17:09:04.317Z,10.26
2022-11-09T17:12:05.626Z,10.23
2022-11-09T17:15:07.173Z,10.22
2022-11-09T17:18:09.912Z,10.22
2022-11-09T17:21:11.623Z,10.20
2022-11-09T17:24:12.954Z,10.21
2022-11-09T17:27:14.259Z,10.20
2022-11-09T17:30:15.704Z,10.19
2022-11-09T17:33:17.193Z,10.17
2022-11-09T17:36:35.120Z,10.16
2022-11-09T17:39:40.073Z,10.15
2022-11-09T17:42:41.411Z,10.16
2022-11-09T17:45:42.752Z,10.13
2022-11-09T17:48:44.633Z,10.13
2022-11-09T17:51:45.965Z,10.12
2022-11-09T17:54:47.378Z,10.08
2022-11-09T17:57:48.909Z,10.08
2022-11-09T18:00:50.336Z,10.08
2022-11-09T18:03:51.719Z,10.02
2022-11-09T18:06:53.347Z,10.02
2022-11-09T18:09:54.983Z,10.04
2022-11-09T18:12:56.372Z,10.03
2022-11-09T18:15:57.857Z,10.04
2022-11-09T18:19:00.721Z,10.04
2022-11-09T18:22:03.133Z,10.03
2022-11-09T18:25:05.743Z,10.01
2022-11-09T18:28:07.062Z,10.00
2022-11-09T18:31:09.811Z,10.00
2022-11-09T18:34:11.249Z,9.97
2022-11-09T18:37:12.719Z,9.97
2022-11-09T18:40:14.318Z,9.95
2022-11-09T18:43:15.661Z,9.99
2022-11-09T18:46:18.111Z,10.04
2022-11-09T18:49:20.090Z,10.06
2022-11-09T18:52:21.527Z,10.12
2022-11-09T18:55:22.887Z,10.20
2022-11-09T18:58:24.376Z,10.27
2022-11-09T19:01:27.377Z,10.26
2022-11-09T19:04:30.531Z,10.27
2022-11-09T19:07:31.932Z,10.23
2022-11-09T19:10:34.695Z,10.19
2022-11-09T19:13:36.026Z,10.18
2022-11-09T19:16:37.512Z,10.11
2022-11-09T19:19:39.001Z,10.10
2022-11-09T19:22:40.464Z,10.08
2022-11-09T19:25:41.828Z,10.06
2022-11-09T19:28:43.137Z,10.04
2022-11-09T19:31:44.580Z,10.07
2022-11-09T19:34:46.648Z,10.03
2022-11-09T19:37:47.967Z,10.00
2022-11-09T19:40:49.433Z,9.96
2022-11-09T19:43:51.353Z,9.97
2022-11-09T19:46:52.836Z,9.96
2022-11-09T19:49:54.196Z,9.95
2022-11-09T19:52:55.590Z,9.92
2022-11-09T19:56:00.458Z,9.93
2022-11-09T19:59:01.872Z,9.94
2022-11-09T20:02:03.442Z,9.92
2022-11-09T20:05:04.956Z,9.92
2022-11-09T20:08:06.364Z,9.92
2022-11-09T20:11:08.526Z,9.91
2022-11-09T20:14:09.914Z,9.95
2022-11-09T20:17:11.250Z,9.89
2022-11-09T20:20:12.698Z,9.88
2022-11-09T20:23:18.988Z,9.83
2022-11-09T20:26:22.861Z,9.81
2022-11-09T20:29:24.299Z,9.77
2022-11-09T20:32:25.627Z,9.77
2022-11-09T20:35:26.965Z,9.74
2022-11-09T20:38:28.317Z,9.75
2022-11-09T20:41:29.651Z,9.73
2022-11-09T20:44:30.966Z,9.73
2022-11-09T20:48:02.047Z,9.73
2022-11-09T20:50:53.815Z,9.72
2022-11-09T20:53:55.194Z,9.71
2022-11-09T20:56:56.537Z,9.69
2022-11-09T20:59:57.857Z,9.68
2022-11-09T21:02:59.191Z,9.66
2022-11-09T21:06:00.877Z,9.64
2022-11-09T21:09:04.673Z,9.60
2022-11-09T21:12:21.267Z,9.59
2022-11-09T21:15:22.653Z,9.57
2022-11-09T21:18:24.328Z,9.57
2022-11-09T21:21:25.843Z,9.53
2022-11-09T21:24:46.149Z,9.53
2022-11-09T21:28:06.411Z,9.52
2022-11-09T21:31:07.830Z,9.50
2022-11-09T21:34:09.171Z,9.48
2022-11-09T21:37:10.743Z,9.45
2022-11-09T21:40:12.126Z,9.45
2022-11-09T21:43:14.894Z,9.43
2022-11-09T21:46:16.335Z,9.44
2022-11-09T21:49:17.686Z,9.43
2022-11-09T21:52:19.030Z,9.40
2022-11-09T21:55:20.457Z,9.38
2022-11-09T21:58:21.803Z,9.35
2022-11-09T22:01:23.247Z,9.34
2022-11-09T22:04:24.587Z,9.34
2022-11-09T22:07:25.909Z,9.33
2022-11-09T22:10:27.477Z,9.27
2022-11-09T22:13:47.315Z,9.24
2022-11-09T22:16:48.641Z,9.22
2022-11-09T22:20:08.885Z,9.23
2022-11-09T22:23:10.283Z,9.20
2022-11-09T22:26:11.642Z,9.19
2022-11-09T22:29:13.068Z,9.20
2022-11-09T22:32:14.416Z,9.22
2022-11-09T22:35:15.740Z,9.22
2022-11-09T22:38:17.139Z,9.22
2022-11-09T22:41:18.548Z,9.20
2022-11-09T22:44:19.883Z,9.17
2022-11-09T22:47:21.221Z,9.13
2022-11-09T22:50:22.558Z,9.11
2022-11-09T22:53:24.255Z,9.05
2022-11-09T22:56:25.747Z,9.05
2022-11-09T22:59:27.108Z,9.05
2022-11-09T23:02:28.598Z,9.03
2022-11-09T23:05:29.947Z,8.99
2022-11-09T23:08:36.732Z,9.01
2022-11-09T23:11:39.107Z,9.03
2022-11-09T23:14:59.224Z,9.03
2022-11-09T23:18:19.154Z,9.05
2022-11-09T23:21:30.629Z,9.06
2022-11-09T23:24:50.744Z,9.07
2022-11-09T23:27:52.126Z,9.06
2022-11-09T23:30:53.497Z,9.06
2022-11-09T23:33:55.686Z,9.04
2022-11-09T23:36:57.073Z,9.05
2022-11-09T23:39:58.399Z,9.04
2022-11-09T23:43:06.765Z,9.02
2022-11-09T23:46:09.151Z,9.03
2022-11-09T23:49:10.488Z,9.02
2022-11-09T23:52:11.889Z,9.01
2022-11-09T23:55:13.322Z,8.99
2022-11-09T23:58:14.676Z,8.96
